Joao Paulo II Airport Ponta Delgada PT
ICAO: LPPD
IATA: PDL
Category: Large
Scheduled Services: Yes

Elevation: 259 ft
TransAlt. 6000 ft.

Airport Communications:
APP:119.4
TWR:118.3

LPPD Zoom In..

Runways:

(A) RW 12 length 7621 ft width 148 ft
---- / hdg 121

(B) RW 30 length 7621 ft width 148 ft
ILS 109.50 / hdg 301

Location; LPPD
Day. 21 / Time. 23.30 Zulu
* QNH: 1007
* Temperature: 16° c. 60.8°f.
* Wind from: 160° Speed 11 kn.
Dewpoint: 13° c.
Visibility: 10 km or more.
Clouds: Scattered 1500 ft.

LPPD 212330Z 16011KT 9999 SCT015 16/13 Q1007


Wind From 160°
Speed 11 kn.

YouTube Music Video
 
jpsmedia.com for Web Design  worldairports.se 2018   terms of use